Chana, IL

9:01 PM CDT on July 29, 2016 (GMT -0500)
WB9NJJ | | Change Station

Elev 810 ft 41.94 °N, 89.15 °W | Updated 1 second ago

Clear
Clear
68.5 °F
Feels Like 68.5 °F
N
1.3
Wind Variable Wind from NE
Gusts 4.7 mph

Today
High -- | Low -- °F
--% Chance of Precip.
Yesterday
High -- | Low -- °F
Precip. -- in
Pressure 29.96 in
Visibility 10.0 miles
Clouds Clear
Dew Point 67 °F
Humidity 94%
Rainfall 0.14 in
Snow Depth Not available.
5:47 AM 8:18 PM
Waning Crescent, 17% visible
METAR KRPJ 300155Z AUTO 03010KT 10SM CLR 20/20 A2996 RMK AO2 T02020195
Pressure 29.96 in
Visibility 10.0 miles
Clouds Clear
Dew Point 67 °F
Humidity 94%
Rainfall 0.14 in
Snow Depth Not available.
5:47 AM 8:18 PM
Waning Crescent, 17% visible
METAR KRPJ 300155Z AUTO 03010KT 10SM CLR 20/20 A2996 RMK AO2 T02020195

10-Day Weather Forecast

Almanac

Astronomy

Jul. 29, 2016 Rise Set
Actual Time
Civil Twilight
Nautical Twilight
Astronomical Twilight
Moon
Length of Visible Light
Length of Day
Tomorrow will be .
, % of the Moon is Illuminated

Today's Extremes

State Highs State Lows

Community

WunderPhotos

Upload Photos

1,928,481 photos uploaded!

WunderBlog® & News

Nearby

Air Quality

  Air Quality AQ Index Pollutant
Not available.

Snow Depth

Station Depth Elevation

Earthquake Activity

City Distance Mag. Time & Date
Minimum magnitude displayed is 2.5.

Coastal Water Temperatures

Place Temperature

Stations

Nearby Weather Stations

Station Location Temp. Windchill Dew Point Humidity Wind Precip. Elev Updated Type
                   

Watches & Warnings

There are currently no watches in effect.